createdAt,value
2023-02-01T09:37:37.013Z,99587.19
2023-02-01T09:40:45.504Z,99589.09
2023-02-01T09:43:57.427Z,99591.38
2023-02-01T09:47:01.031Z,99600.75
2023-02-01T09:50:06.971Z,99603.53
2023-02-01T09:53:18.004Z,99626.63
2023-02-01T09:56:24.524Z,99626.09
2023-02-01T09:59:35.452Z,99634.94
2023-02-01T10:02:41.331Z,99640.88
2023-02-01T10:06:05.751Z,99645.94
2023-02-01T10:09:41.833Z,99651.91
2023-02-01T10:19:24.878Z,99658.91
2023-02-01T10:27:14.570Z,99644.63
2023-02-01T10:37:30.173Z,99646.44
2023-02-01T10:40:33.637Z,99644.84
2023-02-01T10:43:36.895Z,99655.88
2023-02-01T10:46:39.358Z,99643.81
2023-02-01T10:49:49.039Z,99644.19
2023-02-01T10:52:57.960Z,99648.06
2023-02-01T10:56:08.258Z,99645.16
2023-02-01T10:59:18.150Z,99648.28
2023-02-01T11:02:28.881Z,99647.19
2023-02-01T11:09:22.581Z,99641.47
2023-02-01T11:12:30.637Z,99647.19
2023-02-01T11:15:33.308Z,99637.91
2023-02-01T11:18:39.047Z,99642.00
2023-02-01T11:21:44.313Z,99634.50
2023-02-01T11:24:48.267Z,99638.66
2023-02-01T11:27:55.240Z,99639.75
2023-02-01T11:31:01.132Z,99634.78
2023-02-01T11:34:09.488Z,99636.13
2023-02-01T11:37:19.152Z,99631.59
2023-02-01T11:40:29.792Z,99629.66
2023-02-01T11:54:20.599Z,99611.00
2023-02-01T11:57:38.983Z,99611.16
2023-02-01T12:00:59.067Z,99624.75
2023-02-01T12:04:20.548Z,99612.00
2023-02-01T12:07:30.305Z,99613.25
2023-02-01T12:10:45.210Z,99611.28
2023-02-01T12:13:55.014Z,99608.69
2023-02-01T12:17:15.402Z,99593.66
2023-02-01T12:20:34.069Z,99599.94
2023-02-01T12:24:01.995Z,99596.00
2023-02-01T12:31:34.907Z,99616.31
2023-02-01T12:34:49.652Z,99614.53
2023-02-01T12:40:45.618Z,99602.94
2023-02-01T12:43:54.804Z,99591.81
2023-02-01T12:47:02.350Z,99583.53
2023-02-01T12:50:08.672Z,99577.06
2023-02-01T12:53:21.496Z,99572.53
2023-02-01T12:56:30.770Z,99579.34
2023-02-01T12:59:37.678Z,99575.09
2023-02-01T13:02:44.473Z,99573.31
2023-02-01T13:05:53.509Z,99579.28
2023-02-01T13:09:02.525Z,99577.88
2023-02-01T13:12:14.670Z,99586.00
2023-02-01T13:15:21.517Z,99582.06
2023-02-01T13:18:28.310Z,99581.06
2023-02-01T13:21:35.766Z,99580.69
2023-02-01T13:24:43.973Z,99577.00
2023-02-01T13:27:48.596Z,99560.66
2023-02-01T13:31:08.192Z,99555.72
2023-02-01T13:34:38.952Z,99559.94
2023-02-01T13:38:10.925Z,99548.28
2023-02-01T13:52:30.306Z,99547.44
